Yingkou, China
Current Conditions -  °F | °C
As of 7:00 AM on Tuesday 25 Nov 2014 (Local Time) from ZYTX Reporting Station
Smoke Smoke  
Wind Chill: 16°   Ceiling: Unl
Heat Index: 16°   Visibility: 3mi
Dew Point: 12°   Wind: 2mph
Humidity: 86%   Direction: NA
Pressure: 30.21"   Gusts: NA
Location:  40.67°N, 122.28°E
Report Text: ZYTX 242300Z VRB01MPS 5000 FU NSC M09/M11 Q1023 NOSIG
Loading
Personal Weather Stations






























Interactive Weather Map New forecast layout! Learn more

10-Day Weather Forecast

Advertisements
Track Severe Weather on mobile